Date,TemperatureHighF,TemperatureAvgF,TemperatureLowF,DewpointHighF,DewpointAvgF,DewpointLowF,HumidityHigh,HumidityAvg,HumidityLow,PressureMaxIn,PressureMinIn,WindSpeedMaxMPH,WindSpeedAvgMPH,GustSpeedMaxMPH,PrecipitationSumIn
2013-9-1,67.6,62.4,54.7,66.6,59.3,53.2,98,90,77,30.04,29.81,11,1,12,0.00
2013-9-2,70.2,58.6,48.6,59.5,53.4,47.7,98,84,60,30.14,30.03,8,0,8,0.00
2013-9-3,78.3,64.0,51.6,69.3,59.8,50.5,97,87,67,30.07,29.97,5,0,5,0.00
2013-9-4,83.7,70.9,59.9,75.0,67.0,59.2,98,88,70,30.11,29.99,5,0,5,0.00
2013-9-5,84.6,72.4,61.2,72.9,66.2,58.5,91,82,60,30.15,30.02,6,0,7,0.00
2013-9-6,89.1,76.1,66.4,77.2,69.4,63.5,96,81,58,30.03,29.79,6,0,7,0.00
2013-9-7,89.4,76.8,66.9,76.6,70.9,66.4,99,84,57,29.96,29.83,6,0,7,0.00
2013-9-8,73.0,68.5,63.1,70.3,65.3,60.6,94,89,82,30.00,29.83,7,0,8,0.00
2013-9-9,86.4,74.0,65.5,78.4,69.6,63.0,98,87,61,29.83,29.59,7,1,7,0.06
2013-9-10,80.2,71.1,65.8,67.6,64.8,61.2,98,82,54,29.98,29.78,7,1,7,0.04
2013-9-11,82.6,69.5,58.6,66.2,58.3,50.2,95,71,36,30.12,29.98,8,0,9,0.00
2013-9-12,73.8,60.6,49.3,57.9,52.2,47.7,95,76,51,30.26,30.12,10,0,10,0.00
2013-9-13,72.0,58.1,45.1,54.7,49.6,44.1,98,76,47,30.27,30.04,5,0,5,0.00
2013-9-14,59.4,55.8,49.6,58.1,53.2,46.4,96,91,78,30.05,29.81,5,0,5,0.44
2013-9-15,68.4,58.4,47.5,60.1,55.2,46.0,98,90,67,30.33,29.86,7,0,7,0.36
2013-9-16,66.4,54.2,43.9,52.5,47.5,43.2,98,80,46,30.41,30.20,8,0,8,0.00
2013-9-17,64.4,57.4,50.5,59.2,54.6,48.6,96,91,82,30.20,29.87,11,1,11,0.00
2013-9-18,83.7,71.4,59.4,74.3,67.5,57.9,99,88,71,29.87,29.57,10,0,11,0.00
2013-9-19,72.9,67.5,56.8,69.8,62.6,52.2,98,85,58,29.88,29.56,9,1,9,0.71
2013-9-20,59.4,54.1,46.6,53.8,50.5,44.6,96,88,68,29.99,29.86,8,2,8,0.04
2013-9-21,64.6,51.4,39.9,52.5,46.1,38.8,98,83,53,30.06,29.89,4,0,5,0.01
2013-9-22,81.0,63.0,50.0,62.8,53.1,46.8,90,72,42,29.91,29.70,10,1,11,0.00
2013-9-23,76.3,64.6,56.7,60.3,54.7,51.8,85,72,48,29.85,29.73,12,1,12,0.00
2013-9-24,70.7,60.5,54.9,59.7,54.9,51.4,96,82,64,29.94,29.85,8,0,8,0.00
2013-9-25,75.4,61.8,49.8,60.3,54.5,48.7,98,79,48,29.93,29.76,12,0,12,0.00
2013-9-26,82.8,69.3,59.4,64.8,59.8,54.9,88,73,51,29.81,29.68,7,1,16,0.00
2013-9-27,76.8,68.5,58.8,69.4,64.0,55.2,95,86,71,29.77,29.66,15,0,15,0.10
2013-9-28,61.2,55.4,49.5,55.4,50.4,44.2,97,84,57,29.93,29.62,11,2,11,0.18
2013-9-29,75.6,59.3,45.1,54.7,48.0,41.9,92,69,40,29.94,29.66,6,0,8,0.00
2013-9-30,79.7,66.7,56.5,58.8,52.7,47.3,77,61,40,29.67,29.49,7,0,8,0.00